Terminal Aerodrome Forecast
Issued by NWS

Home | Current Version | Previous Version | Text Only | Print | Product List | Glossary On
Versions: 1 2 3 4 5 6 7 8 9 10 11 12 13 14 15 16 17 18
867
FTUS43 KIND 181723
TAFBMG
TAF
KBMG 181723Z 1818/1918 22025G40KT P6SM -SHRA OVC010
     FM182000 26025G40KT 3SM SHRA BR VCTS OVC010CB
      TEMPO 1820/1822 26030G50KT 2SM TSRA BR OVC010CB
     FM182200 32015G25KT P6SM -SHRA OVC010
      TEMPO 1822/1824 P6SM -SHRA OVC008
     FM190000 32014G27KT P6SM -SHRA OVC010
     FM190200 31017G31KT P6SM VCSH OVC015
     FM190400 31015G29KT P6SM OVC020
     FM191300 31008KT P6SM SCT020=

USA.gov is the U.S. government's official web portal to all federal, state and local government web resources and services.